As Sulaybiyah, Kuwait
Current Conditions -  °F | °C
As of 9:00 AM on Thursday 23 Oct 2014 (Local Time) from OKBK Reporting Station
Clear Clear  
Wind Chill: 75°   Ceiling: Unl
Heat Index: 75°   Visibility: 5mi
Dew Point: 46°   Wind: 6mph
Humidity: 36%   Direction: 330°NNW
Pressure: 30.12"   Gusts: NA
Location:  29.29°N, 47.83°E
Report Text: OKBK 230600Z 33005KT 8000 SKC 24/08 Q1020 NOSIG
Loading
Personal Weather Stations






























Interactive Weather Map
Tropical Storm Tracking
New forecast layout! Learn more

10-Day Weather Forecast

Advertisements
Track Severe Weather on mobile